Time;durP1;ratioP1;P1;durP2;ratioP2;P2;SDS_P1;SDS_P2;PMS_P1;PMS_P2;Temp;Humidity;BMP_temperature;BMP_pressure;BME280_temperature;BME280_humidity;BME280_pressure;Samples;Min_cycle;Max_cycle;Signal;HPM_P1;HPM_P2
2021/10/17 00:01:08;;;;;;;21.77;19.77;;;;;;;8.10;80.44;99087.44;4975768;28;106196;-58
2021/10/17 00:03:36;;;;;;;22.75;20.70;;;;;;;8.10;79.75;99091.84;4975402;28;104165;-58
2021/10/17 00:06:06;;;;;;;24.73;22.35;;;;;;;8.10;80.49;99086.59;4975779;28;103268;-58
2021/10/17 00:08:34;;;;;;;23.43;21.23;;;;;;;8.18;80.25;99090.47;4976914;28;103413;-58
2021/10/17 00:11:03;;;;;;;25.10;22.77;;;;;;;8.20;79.91;99077.22;4973662;28;103117;-58
2021/10/17 00:13:33;;;;;;;23.73;21.52;;;;;;;8.24;80.66;99089.28;4976148;28;103231;-58
2021/10/17 00:16:05;;;;;;;18.10;16.43;;;;;;;8.38;80.06;99086.75;4976139;28;103043;-58
2021/10/17 00:18:33;;;;;;;19.45;17.67;;;;;;;8.37;79.53;99087.69;4974792;28;102651;-58
2021/10/17 00:21:02;;;;;;;22.50;20.40;;;;;;;8.37;78.65;99074.50;4964679;28;104107;-58
2021/10/17 00:23:30;;;;;;;22.25;20.27;;;;;;;8.23;78.95;99084.94;4972825;28;104065;-58
2021/10/17 00:25:58;;;;;;;28.15;25.45;;;;;;;7.53;81.36;99086.22;4954995;28;103234;-58
2021/10/17 00:28:26;;;;;;;27.20;24.60;;;;;;;7.34;84.27;99089.91;4976249;28;102641;-58
2021/10/17 00:30:56;;;;;;;17.20;15.63;;;;;;;7.97;83.17;99085.56;4958825;28;104127;-58
2021/10/17 00:33:29;;;;;;;26.08;23.58;;;;;;;7.94;80.93;99080.50;4961542;28;104028;-58
2021/10/17 00:35:57;;;;;;;28.48;25.77;;;;;;;7.73;82.64;99079.88;4960375;28;104523;-58
2021/10/17 00:38:25;;;;;;;25.73;23.20;;;;;;;7.87;82.56;99079.97;4961359;28;102808;-58
2021/10/17 00:40:54;;;;;;;22.20;20.17;;;;;;;8.11;81.91;99075.94;4976763;28;102621;-58
2021/10/17 00:43:22;;;;;;;25.38;22.88;;;;;;;8.19;81.13;99075.53;4978392;28;103771;-58
2021/10/17 00:45:50;;;;;;;21.48;19.48;;;;;;;8.22;81.18;99080.63;4968453;28;103418;-58
2021/10/17 00:48:18;;;;;;;22.47;20.33;;;;;;;8.27;80.88;99078.63;4961463;28;102980;-58
2021/10/17 00:50:48;;;;;;;22.05;20.00;;;;;;;8.28;79.80;99074.22;4978269;28;103124;-58
2021/10/17 00:53:20;;;;;;;26.10;23.60;;;;;;;8.03;79.84;99069.44;4979738;28;104064;-58
2021/10/17 00:55:50;;;;;;;22.77;20.67;;;;;;;7.90;81.69;99073.69;4958687;28;103720;-59
2021/10/17 00:58:21;;;;;;;18.20;16.50;;;;;;;8.11;81.02;99067.25;4959949;28;102800;-58
2021/10/17 01:00:50;;;;;;;21.02;19.02;;;;;;;8.14;79.09;99070.53;4975579;28;104247;-59
2021/10/17 01:03:19;;;;;;;19.77;17.85;;;;;;;8.08;79.01;99067.41;4975102;28;103208;-58
2021/10/17 01:05:49;;;;;;;17.60;16.05;;;;;;;8.17;78.84;99072.13;4960395;28;103990;-58
2021/10/17 01:08:18;;;;;;;21.95;19.83;;;;;;;7.57;80.52;99066.72;4960187;28;102770;-58
2021/10/17 01:10:48;;;;;;;20.20;18.30;;;;;;;7.64;80.34;99069.00;4950477;28;104046;-58
2021/10/17 01:13:18;;;;;;;18.90;17.23;;;;;;;7.80;79.53;99057.59;4959483;28;104127;-58
2021/10/17 01:15:51;;;;;;;21.55;19.55;;;;;;;7.66;79.07;99064.53;4977860;28;103346;-58
2021/10/17 01:18:24;;;;;;;18.90;17.20;;;;;;;7.78;79.50;99058.56;4961463;28;102627;-58
2021/10/17 01:20:57;;;;;;;21.35;19.38;;;;;;;7.49;79.59;99050.50;4958913;28;102854;-64
2021/10/17 01:23:25;;;;;;;18.63;16.98;;;;;;;7.62;79.78;99044.56;4959741;28;105860;-65
2021/10/17 01:25:54;;;;;;;21.23;19.23;;;;;;;7.46;80.38;99047.19;4960372;28;103238;-65
2021/10/17 01:28:22;;;;;;;21.63;19.63;;;;;;;7.57;80.38;99040.44;4960379;28;102656;-64
2021/10/17 01:30:53;;;;;;;17.55;15.95;;;;;;;7.81;80.13;99040.00;4958677;28;103996;-65
2021/10/17 01:33:21;;;;;;;16.53;15.03;;;;;;;7.86;80.01;99035.34;4959695;28;103242;-65
2021/10/17 01:35:51;;;;;;;18.88;16.98;;;;;;;7.99;79.64;99031.09;4950211;28;105196;-65
2021/10/17 01:38:21;;;;;;;22.67;20.48;;;;;;;7.62;80.11;99044.56;4961117;28;102750;-65
2021/10/17 01:40:49;;;;;;;21.67;19.57;;;;;;;7.20;83.86;99045.97;4960254;28;102993;-65
2021/10/17 01:43:18;;;;;;;18.95;17.25;;;;;;;7.63;82.70;99041.03;4961151;28;103321;-65
2021/10/17 01:46:02;;;;;;;20.15;18.25;;;;;;;7.80;81.76;99040.94;4958800;28;103457;-65
2021/10/17 01:48:35;;;;;;;16.75;15.20;;;;;;;7.96;81.34;99041.78;4959523;28;103331;-65
2021/10/17 01:51:03;;;;;;;16.17;14.73;;;;;;;8.07;80.11;99047.28;4959546;28;103184;-64
2021/10/17 01:53:35;;;;;;;16.87;15.37;;;;;;;8.05;79.30;99038.63;4960030;28;103739;-65
2021/10/17 01:56:03;;;;;;;17.40;15.80;;;;;;;8.08;78.47;99035.84;4959429;28;103180;-65
2021/10/17 01:58:35;;;;;;;20.98;18.90;;;;;;;7.88;78.98;99039.59;4960654;28;102812;-65
2021/10/17 02:01:03;;;;;;;21.07;18.83;;;;;;;7.89;79.71;99041.25;4941864;28;104035;-64
2021/10/17 02:03:32;;;;;;;27.10;21.60;;;;;;;7.72;80.93;99032.63;4956056;28;104145;-64
2021/10/17 02:06:02;;;;;;;25.95;20.63;;;;;;;7.54;82.23;99040.59;4958530;28;103427;-65
2021/10/17 02:08:31;;;;;;;91.28;28.27;;;;;;;6.84;84.58;99043.50;4958503;28;102793;-65
2021/10/17 02:11:00;;;;;;;41.08;24.30;;;;;;;6.93;87.14;99042.19;4957123;28;104097;-64
2021/10/17 02:13:31;;;;;;;21.00;18.80;;;;;;;7.13;87.16;99034.06;4957133;28;103268;-65
2021/10/17 02:15:59;;;;;;;20.83;18.70;;;;;;;7.49;85.73;99037.34;4957555;28;103288;-64
2021/10/17 02:18:27;;;;;;;24.15;21.75;;;;;;;7.53;84.14;99044.16;4956599;28;102632;-65
2021/10/17 02:20:55;;;;;;;27.52;23.90;;;;;;;7.37;83.14;99031.91;4956869;28;102751;-65
2021/10/17 02:23:23;;;;;;;17.75;15.95;;;;;;;7.51;84.00;99034.66;4956658;28;104152;-65
2021/10/17 02:25:54;;;;;;;22.50;20.30;;;;;;;7.06;86.13;99026.59;4946893;28;103097;-65
2021/10/17 02:28:35;;;;;;;23.75;21.27;;;;;;;7.37;84.47;99027.53;4956877;28;102759;-64
2021/10/17 02:31:03;;;;;;;21.65;19.45;;;;;;;7.54;83.58;99023.97;4957113;28;104154;-64
2021/10/17 02:33:34;;;;;;;24.67;22.20;;;;;;;7.25;83.34;99024.69;4957165;28;103433;-65
2021/10/17 02:36:04;;;;;;;30.25;26.55;;;;;;;6.83;83.97;99020.78;4957930;28;105735;-65
2021/10/17 02:38:32;;;;;;;23.33;21.03;;;;;;;7.13;85.28;99023.56;4957391;28;102647;-64
2021/10/17 02:41:00;;;;;;;26.73;24.13;;;;;;;6.65;87.17;99026.16;4956777;28;104023;-64
2021/10/17 02:43:29;;;;;;;28.85;26.05;;;;;;;6.77;87.26;99025.50;4955977;28;105058;-64
2021/10/17 02:45:58;;;;;;;24.55;22.25;;;;;;;6.85;87.14;99025.94;4956546;28;104259;-65
2021/10/17 02:48:26;;;;;;;24.77;22.58;;;;;;;6.84;86.41;99026.88;4958071;28;102754;-64
2021/10/17 02:51:00;;;;;;;24.37;22.07;;;;;;;6.69;86.77;99027.66;4946166;28;103257;-64
2021/10/17 02:53:29;;;;;;;18.65;17.02;;;;;;;7.14;86.70;99025.28;4957340;28;103171;-64
2021/10/17 02:55:57;;;;;;;25.67;23.30;;;;;;;6.72;85.11;99027.50;4956237;28;103506;-65
2021/10/17 02:58:25;;;;;;;19.80;18.05;;;;;;;6.82;87.41;99029.56;4957555;28;102997;-65
2021/10/17 03:01:01;;;;;;;21.27;19.38;;;;;;;6.80;86.77;99027.97;4956632;28;102889;-65
2021/10/17 03:03:32;;;;;;;19.80;18.10;;;;;;;6.73;86.81;99031.84;4955933;28;103171;-64
2021/10/17 03:06:00;;;;;;;20.17;18.45;;;;;;;6.54;86.92;99023.22;4973800;28;104028;-64
2021/10/17 03:08:29;;;;;;;25.42;23.17;;;;;;;5.64;91.62;99029.41;4955160;28;102901;-65
2021/10/17 03:11:00;;;;;;;22.08;20.23;;;;;;;5.80;93.42;99028.59;4975016;28;102659;-64
2021/10/17 03:13:28;;;;;;;23.30;21.10;;;;;;;5.51;93.85;99023.88;4956368;28;104293;-65
2021/10/17 03:15:57;;;;;;;22.70;20.58;;;;;;;5.45;94.76;99016.28;4946696;28;103252;-64
2021/10/17 03:18:27;;;;;;;18.83;17.23;;;;;;;5.74;94.09;99017.53;4955630;28;103194;-64
2021/10/17 03:20:55;;;;;;;13.50;12.40;;;;;;;6.27;92.40;99021.03;4956973;28;102702;-64
2021/10/17 03:23:27;;;;;;;19.87;18.13;;;;;;;5.57;93.65;99012.25;4955236;28;103255;-64
2021/10/17 03:25:58;;;;;;;23.33;21.13;;;;;;;4.86;98.20;99016.38;4956512;28;103290;-64
2021/10/17 03:28:26;;;;;;;21.42;19.48;;;;;;;4.91;99.44;99019.63;4955291;28;102905;-64
2021/10/17 03:30:55;;;;;;;21.30;19.30;;;;;;;5.15;98.49;99021.16;4955919;28;102855;-64
2021/10/17 03:33:27;;;;;;;23.05;20.88;;;;;;;4.96;99.46;99017.69;4954943;28;103334;-64
2021/10/17 03:36:02;;;;;;;22.00;20.00;;;;;;;5.17;98.57;99019.31;4954847;28;103166;-64
2021/10/17 03:38:33;;;;;;;20.15;18.30;;;;;;;5.53;97.61;99021.19;4959401;28;102648;-64
2021/10/17 03:41:02;;;;;;;14.40;13.20;;;;;;;6.23;93.84;99019.50;4962702;28;104047;-64
2021/10/17 03:43:37;;;;;;;17.02;15.55;;;;;;;5.93;93.19;99021.00;4954923;28;105259;-64
2021/10/17 03:46:06;;;;;;;15.52;14.23;;;;;;;5.98;92.64;99024.25;4973847;28;103375;-64
2021/10/17 03:48:36;;;;;;;13.45;12.35;;;;;;;6.26;92.70;99023.75;4957742;28;102759;-64
2021/10/17 03:51:11;;;;;;;14.60;13.45;;;;;;;6.09;91.43;99018.50;4953893;28;102973;-63
2021/10/17 03:53:39;;;;;;;11.07;10.18;;;;;;;6.51;90.95;99018.13;4957800;28;104282;-64
2021/10/17 03:56:09;;;;;;;9.87;9.10;;;;;;;6.81;89.36;99020.03;4955045;28;104207;-65
2021/10/17 03:58:37;;;;;;;11.98;10.98;;;;;;;6.91;87.49;99017.75;4955895;28;103814;-64
2021/10/17 04:01:05;;;;;;;12.52;11.43;;;;;;;6.97;85.92;99013.03;4973426;28;103985;-65
2021/10/17 04:03:34;;;;;;;10.02;9.23;;;;;;;7.09;85.28;99014.16;4945000;28;103570;-63
2021/10/17 04:06:06;;;;;;;9.50;8.70;;;;;;;7.20;84.54;99019.69;4970844;28;104362;-64
2021/10/17 04:08:35;;;;;;;12.75;11.65;;;;;;;6.90;83.87;99016.06;4956463;28;103160;-64
2021/10/17 04:11:03;;;;;;;12.52;11.50;;;;;;;7.03;83.59;99013.63;4972987;28;103961;-64
2021/10/17 04:13:34;;;;;;;12.83;11.73;;;;;;;7.00;82.82;99027.78;4955271;28;103616;-64
2021/10/17 04:16:05;;;;;;;10.90;10.00;;;;;;;7.13;82.88;99013.06;4972022;28;103864;-64
2021/10/17 04:18:33;;;;;;;10.02;9.23;;;;;;;7.18;81.33;99011.06;4956394;28;102789;-65
2021/10/17 04:21:03;;;;;;;11.02;10.13;;;;;;;7.21;81.98;99013.50;4974231;28;102907;-64
2021/10/17 04:23:32;;;;;;;13.20;12.10;;;;;;;7.05;82.11;99015.25;4953835;28;103267;-64
2021/10/17 04:26:00;;;;;;;12.63;11.52;;;;;;;7.00;82.04;99018.13;4955142;28;103291;-64
2021/10/17 04:28:31;;;;;;;12.05;11.05;;;;;;;6.89;83.40;99014.34;4944331;28;103064;-64
2021/10/17 04:30:59;;;;;;;9.27;8.48;;;;;;;6.90;83.61;99016.06;4955579;28;102798;-64
2021/10/17 04:33:27;;;;;;;10.65;9.75;;;;;;;7.11;82.74;99004.41;4972261;28;103211;-64
2021/10/17 04:35:55;;;;;;;11.60;10.60;;;;;;;6.96;81.97;99005.25;4955549;28;103306;-64
2021/10/17 04:38:25;;;;;;;12.20;11.20;;;;;;;6.62;84.55;99011.41;4974289;28;103815;-64
2021/10/17 04:40:53;;;;;;;12.35;11.32;;;;;;;6.69;84.11;99019.78;4972355;28;102939;-61
2021/10/17 04:43:23;;;;;;;12.80;11.70;;;;;;;6.57;83.69;99017.81;4955474;28;103123;-64
2021/10/17 04:45:51;;;;;;;8.65;7.95;;;;;;;6.95;84.16;99024.53;4972305;28;103207;-64
2021/10/17 04:48:19;;;;;;;10.53;9.63;;;;;;;6.98;83.69;99021.75;4973218;28;102653;-65
2021/10/17 04:50:48;;;;;;;8.95;8.25;;;;;;;7.14;82.78;99009.50;4972880;28;102770;-65
2021/10/17 04:53:15;;;;;;;9.00;8.30;;;;;;;7.30;82.59;99014.78;4962647;28;103366;-63
2021/10/17 04:55:45;;;;;;;12.50;11.40;;;;;;;7.11;80.67;99012.28;4953381;28;103453;-64
2021/10/17 04:58:15;;;;;;;10.40;9.50;;;;;;;7.24;81.97;99009.88;4973703;28;102684;-64
2021/10/17 05:00:44;;;;;;;12.15;11.15;;;;;;;7.30;81.42;99009.50;4954696;28;102801;-65
2021/10/17 05:03:13;;;;;;;10.20;9.30;;;;;;;7.37;81.53;99011.75;4955200;28;103586;-64
2021/10/17 05:05:42;;;;;;;11.00;10.00;;;;;;;7.45;81.19;99006.91;4953893;28;105387;-64
2021/10/17 05:08:11;;;;;;;12.93;11.73;;;;;;;7.40;80.83;99018.63;4954931;28;102673;-64
2021/10/17 05:10:40;;;;;;;10.45;9.45;;;;;;;7.50;80.96;99012.75;4972419;28;103918;-64
2021/10/17 05:13:10;;;;;;;10.55;9.65;;;;;;;7.55;80.67;99007.28;4953959;28;105012;-65
2021/10/17 05:15:38;;;;;;;13.13;11.93;;;;;;;7.51;80.22;99014.47;4954422;28;103320;-64
2021/10/17 05:18:06;;;;;;;14.23;12.83;;;;;;;7.32;79.99;99018.19;4948563;28;102965;-64
2021/10/17 05:20:38;;;;;;;10.17;9.27;;;;;;;7.43;81.08;99008.78;4958211;28;104071;-64
2021/10/17 05:23:07;;;;;;;11.43;10.32;;;;;;;7.54;80.69;99014.31;4972451;28;103219;-64
2021/10/17 05:25:36;;;;;;;13.20;12.00;;;;;;;7.40;80.04;99005.47;4975762;28;103251;-65
2021/10/17 05:28:04;;;;;;;13.27;11.98;;;;;;;7.32;80.92;99013.78;4974093;28;102587;-64
2021/10/17 05:30:37;;;;;;;44.67;24.98;;;;;;;7.28;82.01;99012.25;4958477;28;104842;-64
2021/10/17 05:33:06;;;;;;;27.10;17.58;;;;;;;7.46;81.68;99008.63;4958056;28;103210;-64
2021/10/17 05:35:36;;;;;;;13.52;11.77;;;;;;;7.58;81.67;99007.94;4957611;28;103273;-64
2021/10/17 05:38:05;;;;;;;11.85;10.75;;;;;;;7.67;81.20;99008.34;4954795;28;102770;-64
2021/10/17 05:40:34;;;;;;;10.83;9.73;;;;;;;7.71;80.93;99009.88;4957978;28;103984;-64
2021/10/17 05:43:03;;;;;;;12.38;11.18;;;;;;;7.63;81.06;99007.69;4965477;28;104191;-64
2021/10/17 05:45:31;;;;;;;14.52;13.30;;;;;;;7.04;81.77;99013.56;4956271;28;103395;-63
2021/10/17 05:48:01;;;;;;;14.15;12.85;;;;;;;6.92;84.61;99027.34;4958722;28;103251;-64
2021/10/17 05:50:32;;;;;;;12.48;11.38;;;;;;;6.93;84.68;99018.53;4959170;28;104301;-64
2021/10/17 05:53:00;;;;;;;12.48;11.40;;;;;;;6.68;85.90;99018.13;4977275;28;103984;-64
2021/10/17 05:55:28;;;;;;;11.00;10.00;;;;;;;6.89;86.34;99025.72;4975996;28;103283;-64
2021/10/17 05:57:56;;;;;;;11.30;10.35;;;;;;;6.95;85.54;99027.19;4958841;28;103162;-64
2021/10/17 06:00:24;;;;;;;9.90;9.10;;;;;;;7.22;85.13;99023.06;4954319;28;104007;-64
2021/10/17 06:03:00;;;;;;;10.40;9.60;;;;;;;7.16;85.18;99023.41;4956878;28;105212;-58
2021/10/17 06:05:37;;;;;;;9.25;8.52;;;;;;;7.47;84.71;99033.09;4957559;28;104340;-58
2021/10/17 06:08:06;;;;;;;8.90;8.20;;;;;;;7.64;84.25;99037.44;4948077;28;103263;-58
2021/10/17 06:10:34;;;;;;;8.33;7.70;;;;;;;7.76;83.52;99042.03;4973049;28;102707;-57
2021/10/17 06:13:02;;;;;;;8.40;7.70;;;;;;;7.84;82.77;99037.19;4953202;28;103200;-58
2021/10/17 06:15:30;;;;;;;9.70;8.80;;;;;;;7.92;82.20;99045.50;4955578;28;105072;-57
2021/10/17 06:17:59;;;;;;;13.13;11.93;;;;;;;7.95;81.87;99050.59;4959343;28;103073;-57
2021/10/17 06:20:27;;;;;;;12.07;10.97;;;;;;;8.00;81.70;99049.41;4956227;28;104288;-57
2021/10/17 06:22:57;;;;;;;13.45;12.25;;;;;;;8.10;81.44;99060.25;4956957;28;103582;-58
2021/10/17 06:25:25;;;;;;;19.03;17.13;;;;;;;7.86;81.22;99056.38;4954839;28;103494;-57
2021/10/17 06:27:53;;;;;;;14.73;13.32;;;;;;;8.00;82.09;99065.19;4956348;28;102703;-57
2021/10/17 06:30:22;;;;;;;13.95;12.60;;;;;;;8.16;81.60;99065.19;4956970;28;103784;-57
2021/10/17 06:32:50;;;;;;;15.57;14.07;;;;;;;8.20;81.41;99071.97;4949042;28;103274;-57
2021/10/17 06:35:22;;;;;;;16.03;14.60;;;;;;;8.19;81.10;99065.00;4956228;28;105104;-57
2021/10/17 06:37:50;;;;;;;12.85;11.75;;;;;;;8.32;81.60;99076.56;4955053;28;102674;-57
2021/10/17 06:40:20;;;;;;;12.38;11.27;;;;;;;8.40;81.58;99079.59;4974633;28;102817;-57
2021/10/17 06:42:50;;;;;;;12.52;11.43;;;;;;;8.44;81.00;99078.50;4955955;28;103298;-57
2021/10/17 06:45:31;;;;;;;8.80;8.13;;;;;;;8.50;81.51;99069.41;4955267;28;103361;-57
2021/10/17 06:48:00;;;;;;;8.63;7.93;;;;;;;8.50;81.56;99083.41;4951402;28;103124;-57
2021/10/17 06:50:29;;;;;;;8.15;7.55;;;;;;;8.56;81.61;99085.66;4956036;28;104166;-58
2021/10/17 06:52:58;;;;;;;9.23;8.60;;;;;;;8.58;81.67;99086.44;4955854;28;103281;-57
2021/10/17 06:55:28;;;;;;;9.20;8.50;;;;;;;8.71;82.06;99079.53;4956743;28;103294;-57
2021/10/17 06:57:59;;;;;;;8.80;8.15;;;;;;;8.83;81.75;99085.88;4947218;28;103471;-57
2021/10/17 07:00:30;;;;;;;10.60;9.80;;;;;;;8.46;83.93;99088.94;4953493;28;103345;-57
2021/10/17 07:02:59;;;;;;;12.02;11.13;;;;;;;8.50;82.63;99091.31;4955656;28;103247;-58
2021/10/17 07:05:28;;;;;;;12.77;11.77;;;;;;;8.40;84.26;99095.41;4953401;28;104013;-58
2021/10/17 07:08:01;;;;;;;11.23;10.32;;;;;;;8.76;83.60;99091.59;4954747;28;103105;-58
2021/10/17 07:10:32;;;;;;;10.13;9.32;;;;;;;9.06;82.86;99089.75;4974356;28;103834;-58
2021/10/17 07:13:32;;;;;;;11.20;10.40;;;;;;;8.93;84.04;99094.91;4973011;28;104651;-58
2021/10/17 07:16:00;;;;;;;11.93;10.95;;;;;;;9.02;83.76;99098.78;4955576;28;104719;-58
2021/10/17 07:18:28;;;;;;;12.68;11.68;;;;;;;8.86;84.94;99103.28;4953039;28;103023;-58
2021/10/17 07:20:57;;;;;;;12.95;11.95;;;;;;;8.58;86.30;99101.41;4972156;28;103201;-57
2021/10/17 07:23:25;;;;;;;11.40;10.50;;;;;;;8.88;85.00;99104.03;4930213;28;109067;-58
2021/10/17 07:25:55;;;;;;;12.32;11.43;;;;;;;8.88;85.71;99101.38;4953945;28;105624;-58
2021/10/17 07:28:23;;;;;;;11.98;11.07;;;;;;;9.06;85.52;99100.31;4957240;28;102700;-58
2021/10/17 07:31:01;;;;;;;13.52;12.35;;;;;;;8.96;85.54;99107.91;4956192;28;104372;-58
2021/10/17 07:33:38;;;;;;;14.98;13.68;;;;;;;8.85;87.15;99104.19;4956015;28;103262;-58
2021/10/17 07:36:09;;;;;;;14.70;13.45;;;;;;;8.64;88.26;99098.41;4956580;28;104894;-58
2021/10/17 07:38:40;;;;;;;15.68;14.38;;;;;;;8.74;87.60;99100.41;4957142;28;102741;-57
2021/10/17 07:41:10;;;;;;;14.52;13.35;;;;;;;8.79;88.15;99104.56;4955967;28;103136;-58
2021/10/17 07:43:38;;;;;;;15.05;13.65;;;;;;;9.01;88.45;99107.66;4971447;28;105330;-58
2021/10/17 07:46:06;;;;;;;16.80;15.02;;;;;;;8.87;88.51;99105.81;4944845;28;104782;-58
2021/10/17 07:48:36;;;;;;;17.15;15.55;;;;;;;8.74;89.24;99105.69;4973403;28;102816;-58
2021/10/17 07:51:05;;;;;;;13.63;12.53;;;;;;;9.25;87.10;99106.16;4954138;28;103923;-58
2021/10/17 07:53:33;;;;;;;15.80;14.33;;;;;;;8.67;88.42;99114.88;4976085;28;103391;-58
2021/10/17 07:56:01;;;;;;;16.38;14.88;;;;;;;8.58;88.97;99125.97;4974208;28;103185;-58
2021/10/17 07:58:37;;;;;;;16.55;14.98;;;;;;;8.39;89.75;99125.31;4956584;28;103473;-58
2021/10/17 08:01:06;;;;;;;14.35;13.05;;;;;;;8.79;90.05;99123.00;4956103;28;102683;-58
2021/10/17 08:03:35;;;;;;;16.40;14.70;;;;;;;8.54;88.75;99131.47;4973591;28;103363;-58
2021/10/17 08:06:35;;;;;;;15.60;14.10;;;;;;;8.54;89.03;99134.09;4931657;28;103242;-58
2021/10/17 08:09:04;;;;;;;16.27;14.77;;;;;;;8.47;89.31;99136.25;4954085;28;103299;-58
2021/10/17 08:11:33;;;;;;;14.10;12.80;;;;;;;8.92;89.98;99129.25;4962970;28;103614;-59
2021/10/17 08:14:06;;;;;;;14.73;13.32;;;;;;;9.22;87.63;99127.44;4954673;28;105406;-58
2021/10/17 08:16:43;;;;;;;14.50;13.10;;;;;;;9.41;86.10;99130.66;4952019;28;104021;-57
2021/10/17 08:19:11;;;;;;;16.33;14.63;;;;;;;8.90;87.91;99125.88;4956911;28;102763;-58
2021/10/17 08:21:41;;;;;;;13.57;12.20;;;;;;;9.08;88.11;99130.03;4955275;28;104330;-58
2021/10/17 08:24:11;;;;;;;14.75;13.25;;;;;;;8.86;89.57;99132.25;4956280;28;103262;-59
2021/10/17 08:26:42;;;;;;;12.48;11.27;;;;;;;9.15;87.07;99136.66;4973948;28;103474;-58
2021/10/17 08:29:26;;;;;;;15.20;13.20;;;;;;;7.80;93.16;99140.91;4956453;28;103135;-59
2021/10/17 08:31:55;;;;;;;16.00;13.13;;;;;;;8.32;91.57;99129.22;4954951;28;102792;-58
2021/10/17 08:34:26;;;;;;;11.95;10.85;;;;;;;9.01;88.84;99134.81;4955888;28;103505;-59
2021/10/17 08:36:54;;;;;;;14.80;13.40;;;;;;;9.17;87.47;99134.78;4925220;28;103448;-61
2021/10/17 08:39:54;;;;;;;17.93;16.13;;;;;;;8.73;88.80;99135.59;4949729;28;102818;-60
2021/10/17 08:42:39;;;;;;;13.52;12.32;;;;;;;9.45;86.79;99141.88;4955881;28;102966;-62
2021/10/17 08:45:24;;;;;;;15.02;13.63;;;;;;;9.43;85.16;99147.22;4973838;28;103108;-62
2021/10/17 08:47:56;;;;;;;13.70;12.40;;;;;;;9.73;85.21;99144.53;4975687;28;103646;-58
2021/10/17 08:50:25;;;;;;;14.32;13.02;;;;;;;10.01;83.69;99127.81;4950507;28;105076;-58
2021/10/17 08:52:53;;;;;;;16.02;14.52;;;;;;;9.90;84.09;99136.41;4977411;28;102754;-59
2021/10/17 08:55:24;;;;;;;16.27;14.75;;;;;;;9.92;84.09;99134.50;4958459;28;105149;-59
2021/10/17 08:58:05;;;;;;;16.38;14.82;;;;;;;10.00;83.42;99147.22;4957909;28;103435;-59
2021/10/17 09:00:36;;;;;;;15.93;14.43;;;;;;;9.86;83.80;99140.16;4945530;28;103175;-58
2021/10/17 09:03:31;;;;;;;15.18;13.77;;;;;;;9.84;85.62;99137.63;4958287;28;102749;-59
2021/10/17 09:06:16;;;;;;;17.90;16.20;;;;;;;8.97;88.19;99145.66;4957453;28;104078;-59
2021/10/17 09:08:48;;;;;;;15.25;13.82;;;;;;;9.43;88.69;99135.84;4958240;28;103039;-58
2021/10/17 09:11:35;;;;;;;15.97;14.47;;;;;;;9.52;86.95;99141.41;4959994;28;102745;-59
2021/10/17 09:14:05;;;;;;;16.45;14.85;;;;;;;10.07;85.14;99127.41;4975119;28;102820;-59
2021/10/17 09:16:39;;;;;;;15.05;13.70;;;;;;;10.19;83.48;99131.97;4979032;28;103306;-59
2021/10/17 09:19:13;;;;;;;15.13;13.73;;;;;;;10.38;82.50;99120.13;4976108;28;103234;-59
2021/10/17 09:22:02;;;;;;;16.57;15.07;;;;;;;10.08;84.69;99126.47;4977148;28;102750;-58
2021/10/17 09:24:34;;;;;;;16.23;14.73;;;;;;;10.56;82.77;99130.41;4976056;28;102614;-59
2021/10/17 09:27:07;;;;;;;15.45;14.00;;;;;;;10.55;83.34;99129.59;4961630;28;103285;-59
2021/10/17 09:29:37;;;;;;;14.97;13.57;;;;;;;10.68;81.72;99130.47;4975730;28;103214;-59
2021/10/17 09:32:12;;;;;;;15.63;14.10;;;;;;;10.79;81.90;99127.09;4975748;28;102693;-59
2021/10/17 09:34:41;;;;;;;14.75;13.35;;;;;;;10.06;86.86;99123.94;4975954;28;102978;-59
2021/10/17 09:37:10;;;;;;;15.27;13.90;;;;;;;10.24;86.33;99125.44;4975526;28;103302;-58
2021/10/17 09:40:02;;;;;;;15.75;14.32;;;;;;;10.43;83.76;99122.44;4976377;28;103261;-59
2021/10/17 09:43:13;;;;;;;16.57;15.07;;;;;;;10.25;85.25;99120.97;4954286;28;103013;-59
2021/10/17 09:46:09;;;;;;;15.77;14.27;;;;;;;10.32;84.84;99114.38;4957602;28;103064;-67
2021/10/17 09:48:39;;;;;;;17.27;15.67;;;;;;;10.16;83.96;99117.13;4975108;28;103572;-67
2021/10/17 09:51:08;;;;;;;17.50;15.90;;;;;;;9.96;87.76;99121.97;4964202;28;103268;-68
2021/10/17 09:53:46;;;;;;;17.60;15.98;;;;;;;9.86;87.59;99114.63;4974667;28;102709;-68
2021/10/17 09:56:34;;;;;;;18.33;16.63;;;;;;;9.95;88.38;99122.91;4975317;28;103497;-67
2021/10/17 09:59:05;;;;;;;16.90;15.40;;;;;;;10.15;86.39;99110.19;4963048;28;103524;-67
2021/10/17 10:01:35;;;;;;;19.08;17.38;;;;;;;9.12;90.96;99113.13;4972354;28;103253;-67
2021/10/17 10:04:08;;;;;;;17.45;15.85;;;;;;;9.76;87.94;99113.53;4956756;28;102751;-66
2021/10/17 10:06:36;;;;;;;17.33;15.77;;;;;;;10.06;87.67;99105.44;4958005;28;104407;-67
2021/10/17 10:09:09;;;;;;;15.25;13.95;;;;;;;10.71;86.07;99108.28;4956629;28;103229;-67
2021/10/17 10:11:39;;;;;;;18.73;17.02;;;;;;;10.64;84.41;99102.53;4925957;28;103457;-64
2021/10/17 10:14:09;;;;;;;16.85;15.40;;;;;;;10.77;84.68;99110.50;4935020;28;103006;-66
2021/10/17 10:16:38;;;;;;;15.00;13.68;;;;;;;11.11;82.92;99109.09;4971503;28;103203;-67
2021/10/17 10:19:10;;;;;;;16.05;14.65;;;;;;;11.29;82.43;99110.47;4952168;28;103373;-68
2021/10/17 10:21:39;;;;;;;17.40;15.87;;;;;;;11.13;81.17;99109.81;4954045;28;103207;-67
2021/10/17 10:24:10;;;;;;;17.05;15.55;;;;;;;11.17;81.78;99108.69;4957226;28;103352;-67
2021/10/17 10:26:41;;;;;;;17.07;15.50;;;;;;;11.45;81.16;99113.78;4953071;28;102877;-67
2021/10/17 10:29:11;;;;;;;18.60;17.00;;;;;;;11.03;82.70;99110.44;4957368;28;103297;-67
2021/10/17 10:31:47;;;;;;;20.43;18.53;;;;;;;10.22;86.48;99108.81;4957888;28;103244;-67
2021/10/17 10:34:50;;;;;;;18.07;16.40;;;;;;;11.00;84.49;99113.28;4957202;28;102678;-68
2021/10/17 10:37:21;;;;;;;17.47;15.87;;;;;;;10.70;83.88;99112.69;4955416;28;104089;-67
2021/10/17 10:40:10;;;;;;;18.13;16.45;;;;;;;10.25;88.23;99113.91;4951186;28;103244;-68
2021/10/17 10:42:40;;;;;;;19.05;17.25;;;;;;;10.01;90.23;99115.47;4959682;28;103231;-67
2021/10/17 10:45:23;;;;;;;16.45;14.98;;;;;;;10.74;87.23;99114.22;4953878;28;102683;-67
2021/10/17 10:48:24;;;;;;;20.10;18.17;;;;;;;9.89;91.04;99113.59;4954218;28;103119;-67
2021/10/17 10:50:57;;;;;;;18.80;17.20;;;;;;;10.28;89.13;99110.22;4952060;28;103539;-67
2021/10/17 10:53:51;;;;;;;18.90;17.13;;;;;;;10.81;86.32;99110.19;4956030;28;103195;-68
2021/10/17 10:56:46;;;;;;;17.52;15.93;;;;;;;11.07;85.38;99109.28;4953525;28;103368;-67
2021/10/17 10:59:16;;;;;;;16.00;14.60;;;;;;;11.56;83.87;99114.69;4953954;28;103223;-68
2021/10/17 11:01:53;;;;;;;20.67;18.85;;;;;;;11.59;83.84;99106.53;4954548;28;103289;-67
2021/10/17 11:05:00;;;;;;;19.25;17.45;;;;;;;11.17;84.98;99111.31;4946078;28;103641;-67
2021/10/17 11:07:37;;;;;;;21.08;18.98;;;;;;;10.95;86.31;99110.13;4973797;28;102925;-67
2021/10/17 11:10:43;;;;;;;20.53;18.50;;;;;;;10.41;87.96;99113.78;4971190;28;103698;-67
2021/10/17 11:13:35;;;;;;;21.30;19.20;;;;;;;10.17;89.78;99116.19;4973543;28;104139;-67
2021/10/17 11:16:05;;;;;;;21.77;19.60;;;;;;;10.40;90.43;99109.44;4973295;28;103017;-67
2021/10/17 11:18:40;;;;;;;17.50;16.00;;;;;;;11.46;86.34;99102.22;4972179;28;103272;-67
2021/10/17 11:21:09;;;;;;;18.53;16.83;;;;;;;11.86;84.39;99100.28;4974058;28;103078;-67
2021/10/17 11:23:39;;;;;;;19.95;18.05;;;;;;;11.58;84.95;99094.28;4975346;28;103723;-68
2021/10/17 11:26:11;;;;;;;22.55;20.45;;;;;;;11.39;86.32;99093.03;4974208;28;102995;-67
2021/10/17 11:28:41;;;;;;;18.70;17.03;;;;;;;11.95;84.15;99097.84;4974856;28;102657;-68
2021/10/17 11:31:11;;;;;;;21.63;19.63;;;;;;;11.24;87.41;99096.72;4931004;28;103026;-67
2021/10/17 11:33:42;;;;;;;18.77;16.98;;;;;;;11.14;88.80;99090.38;4974643;28;103269;-68
2021/10/17 11:36:13;;;;;;;20.98;18.90;;;;;;;11.01;88.84;99085.91;4955043;28;103442;-66
2021/10/17 11:38:43;;;;;;;22.13;20.00;;;;;;;11.06;86.83;99088.22;4951873;28;103032;-66